sensor_id;sensor_type;location;lat;lon;timestamp;pressure;altitude;pressure_sealevel;temperature;humidity
65127;BME280;51927;49.080;19.652;2023-10-13T00:00:04;94650.19;;;23.82;51.15
65127;BME280;51927;49.080;19.652;2023-10-13T00:00:30;94650.19;;;23.82;50.97
65127;BME280;51927;49.080;19.652;2023-10-13T00:00:40;94649.41;;;23.81;51.03
65127;BME280;51927;49.080;19.652;2023-10-13T00:00:45;94650.97;;;23.82;51.15
65127;BME280;51927;49.080;19.652;2023-10-13T00:00:52;94653.66;;;23.82;51.10
65127;BME280;51927;49.080;19.652;2023-10-13T00:01:02;94655.53;;;23.82;50.92
65127;BME280;51927;49.080;19.652;2023-10-13T00:01:11;94650.97;;;23.82;51.43
65127;BME280;51927;49.080;19.652;2023-10-13T00:01:16;94655.53;;;23.82;51.03
65127;BME280;51927;49.080;19.652;2023-10-13T00:01:22;94644.84;;;23.82;51.01
65127;BME280;51927;49.080;19.652;2023-10-13T00:01:28;94647.53;;;23.82;51.11
65127;BME280;51927;49.080;19.652;2023-10-13T00:01:34;94650.97;;;23.82;51.14
65127;BME280;51927;49.080;19.652;2023-10-13T00:01:39;94654.75;;;23.81;51.01
65127;BME280;51927;49.080;19.652;2023-10-13T00:01:44;94649.41;;;23.81;51.18
65127;BME280;51927;49.080;19.652;2023-10-13T00:01:52;94645.63;;;23.82;51.43
65127;BME280;51927;49.080;19.652;2023-10-13T00:01:58;94647.53;;;23.82;50.94
65127;BME280;51927;49.080;19.652;2023-10-13T00:02:04;94650.19;;;23.82;51.04
65127;BME280;51927;49.080;19.652;2023-10-13T00:02:10;94650.19;;;23.82;51.30
65127;BME280;51927;49.080;19.652;2023-10-13T00:02:15;94650.97;;;23.82;51.42
65127;BME280;51927;49.080;19.652;2023-10-13T00:02:23;94651.81;;;23.83;51.13
65127;BME280;51927;49.080;19.652;2023-10-13T00:02:29;94656.31;;;23.82;51.37
65127;BME280;51927;49.080;19.652;2023-10-13T00:02:34;94653.66;;;23.82;51.11
65127;BME280;51927;49.080;19.652;2023-10-13T00:02:39;94648.31;;;23.82;51.27
65127;BME280;51927;49.080;19.652;2023-10-13T00:02:44;94656.31;;;23.82;51.27
65127;BME280;51927;49.080;19.652;2023-10-13T00:02:50;94653.66;;;23.82;50.94
65127;BME280;51927;49.080;19.652;2023-10-13T00:02:56;94652.59;;;23.83;51.34
65127;BME280;51927;49.080;19.652;2023-10-13T00:03:05;94650.19;;;23.82;51.08
65127;BME280;51927;49.080;19.652;2023-10-13T00:03:10;94649.41;;;23.81;51.36
65127;BME280;51927;49.080;19.652;2023-10-13T00:03:19;94649.13;;;23.83;51.29
65127;BME280;51927;49.080;19.652;2023-10-13T00:03:26;94653.66;;;23.82;51.13
65127;BME280;51927;49.080;19.652;2023-10-13T00:03:36;94650.19;;;23.82;51.22
65127;BME280;51927;49.080;19.652;2023-10-13T00:03:42;94653.66;;;23.82;51.01
65127;BME280;51927;49.080;19.652;2023-10-13T00:03:47;94650.19;;;23.82;51.17
65127;BME280;51927;49.080;19.652;2023-10-13T00:03:52;94649.41;;;23.81;51.37
65127;BME280;51927;49.080;19.652;2023-10-13T00:03:58;94650.19;;;23.82;51.17
65127;BME280;51927;49.080;19.652;2023-10-13T00:04:03;94649.41;;;23.81;51.30
65127;BME280;51927;49.080;19.652;2023-10-13T00:04:10;94650.97;;;23.82;51.27
65127;BME280;51927;49.080;19.652;2023-10-13T00:04:15;94650.97;;;23.82;50.95
65127;BME280;51927;49.080;19.652;2023-10-13T00:04:21;94656.31;;;23.82;51.21
65127;BME280;51927;49.080;19.652;2023-10-13T00:04:30;94650.97;;;23.82;50.89
65127;BME280;51927;49.080;19.652;2023-10-13T00:04:36;94647.53;;;23.82;51.23
65127;BME280;51927;49.080;19.652;2023-10-13T00:04:41;94653.66;;;23.82;51.32
65127;BME280;51927;49.080;19.652;2023-10-13T00:04:47;94649.41;;;23.81;51.28
65127;BME280;51927;49.080;19.652;2023-10-13T00:04:52;94650.97;;;23.82;50.91
65127;BME280;51927;49.080;19.652;2023-10-13T00:04:57;94650.97;;;23.82;51.11
65127;BME280;51927;49.080;19.652;2023-10-13T00:05:03;94650.97;;;23.82;50.91
65127;BME280;51927;49.080;19.652;2023-10-13T00:05:09;94650.19;;;23.82;51.14
65127;BME280;51927;49.080;19.652;2023-10-13T00:05:14;94653.66;;;23.82;51.39
65127;BME280;51927;49.080;19.652;2023-10-13T00:05:21;94647.53;;;23.82;51.43
65127;BME280;51927;49.080;19.652;2023-10-13T00:05:27;94650.19;;;23.82;51.44
65127;BME280;51927;49.080;19.652;2023-10-13T00:05:33;94650.19;;;23.82;51.35
65127;BME280;51927;49.080;19.652;2023-10-13T00:05:38;94653.66;;;23.82;51.43
65127;BME280;51927;49.080;19.652;2023-10-13T00:05:46;94650.97;;;23.82;51.46
65127;BME280;51927;49.080;19.652;2023-10-13T00:05:57;94649.41;;;23.81;50.99
65127;BME280;51927;49.080;19.652;2023-10-13T00:06:04;94646.75;;;23.81;50.92
65127;BME280;51927;49.080;19.652;2023-10-13T00:06:10;94644.84;;;23.82;51.44
65127;BME280;51927;49.080;19.652;2023-10-13T00:06:16;94646.75;;;23.81;50.96
65127;BME280;51927;49.080;19.652;2023-10-13T00:06:21;94649.41;;;23.81;51.07
65127;BME280;51927;49.080;19.652;2023-10-13T00:06:26;94648.31;;;23.82;50.91
65127;BME280;51927;49.080;19.652;2023-10-13T00:06:31;94646.75;;;23.81;50.94
65127;BME280;51927;49.080;19.652;2023-10-13T00:06:37;94649.41;;;23.81;51.05
65127;BME280;51927;49.080;19.652;2023-10-13T00:06:42;94652.09;;;23.81;51.36
65127;BME280;51927;49.080;19.652;2023-10-13T00:06:47;94648.31;;;23.82;51.17
65127;BME280;51927;49.080;19.652;2023-10-13T00:06:53;94646.75;;;23.81;51.37
65127;BME280;51927;49.080;19.652;2023-10-13T00:06:58;94649.41;;;23.81;51.29
65127;BME280;51927;49.080;19.652;2023-10-13T00:07:06;94647.53;;;23.82;51.08
65127;BME280;51927;49.080;19.652;2023-10-13T00:07:13;94655.53;;;23.82;51.09
65127;BME280;51927;49.080;19.652;2023-10-13T00:07:19;94654.75;;;23.81;51.25
65127;BME280;51927;49.080;19.652;2023-10-13T00:07:24;94653.66;;;23.82;51.15
65127;BME280;51927;49.080;19.652;2023-10-13T00:07:29;94655.25;;;23.83;51.08
65127;BME280;51927;49.080;19.652;2023-10-13T00:07:34;94645.63;;;23.82;51.45
65127;BME280;51927;49.080;19.652;2023-10-13T00:07:39;94650.97;;;23.82;51.32
65127;BME280;51927;49.080;19.652;2023-10-13T00:07:45;94650.19;;;23.82;51.33
65127;BME280;51927;49.080;19.652;2023-10-13T00:07:50;94650.97;;;23.82;51.01
65127;BME280;51927;49.080;19.652;2023-10-13T00:07:55;94650.97;;;23.82;51.41
65127;BME280;51927;49.080;19.652;2023-10-13T00:08:01;94647.53;;;23.82;51.13
65127;BME280;51927;49.080;19.652;2023-10-13T00:08:06;94645.63;;;23.82;51.06
65127;BME280;51927;49.080;19.652;2023-10-13T00:08:11;94650.19;;;23.82;50.89
65127;BME280;51927;49.080;19.652;2023-10-13T00:08:18;94653.66;;;23.82;51.14
65127;BME280;51927;49.080;19.652;2023-10-13T00:08:25;94655.53;;;23.82;51.31
65127;BME280;51927;49.080;19.652;2023-10-13T00:08:30;94650.97;;;23.82;51.45
65127;BME280;51927;49.080;19.652;2023-10-13T00:08:36;94654.75;;;23.81;51.36
65127;BME280;51927;49.080;19.652;2023-10-13T00:08:45;94644.84;;;23.82;51.22
65127;BME280;51927;49.080;19.652;2023-10-13T00:08:50;94656.31;;;23.82;51.29
65127;BME280;51927;49.080;19.652;2023-10-13T00:08:56;94650.97;;;23.82;51.27
65127;BME280;51927;49.080;19.652;2023-10-13T00:09:01;94653.97;;;23.80;51.04
65127;BME280;51927;49.080;19.652;2023-10-13T00:09:06;94649.41;;;23.81;51.43
65127;BME280;51927;49.080;19.652;2023-10-13T00:09:19;94660.13;;;23.81;51.12
65127;BME280;51927;49.080;19.652;2023-10-13T00:09:29;94649.41;;;23.81;50.92
65127;BME280;51927;49.080;19.652;2023-10-13T00:09:38;94654.75;;;23.81;51.10
65127;BME280;51927;49.080;19.652;2023-10-13T00:09:43;94644.84;;;23.82;51.03
65127;BME280;51927;49.080;19.652;2023-10-13T00:09:48;94655.53;;;23.82;50.91
65127;BME280;51927;49.080;19.652;2023-10-13T00:09:53;94650.97;;;23.82;51.45
65127;BME280;51927;49.080;19.652;2023-10-13T00:10:01;94652.09;;;23.81;50.91
65127;BME280;51927;49.080;19.652;2023-10-13T00:10:09;94654.75;;;23.81;51.38
65127;BME280;51927;49.080;19.652;2023-10-13T00:10:15;94653.66;;;23.82;51.01
65127;BME280;51927;49.080;19.652;2023-10-13T00:10:23;94653.66;;;23.82;51.43
65127;BME280;51927;49.080;19.652;2023-10-13T00:10:29;94649.41;;;23.81;51.30
65127;BME280;51927;49.080;19.652;2023-10-13T00:10:35;94652.09;;;23.81;51.20
65127;BME280;51927;49.080;19.652;2023-10-13T00:10:40;94647.53;;;23.82;51.27
65127;BME280;51927;49.080;19.652;2023-10-13T00:10:45;94656.31;;;23.82;51.40
65127;BME280;51927;49.080;19.652;2023-10-13T00:10:52;94650.97;;;23.82;51.24
65127;BME280;51927;49.080;19.652;2023-10-13T00:10:57;94649.41;;;23.81;51.33
65127;BME280;51927;49.080;19.652;2023-10-13T00:11:05;94659.00;;;23.82;50.87
65127;BME280;51927;49.080;19.652;2023-10-13T00:11:13;94652.88;;;23.82;51.13
65127;BME280;51927;49.080;19.652;2023-10-13T00:11:18;94650.97;;;23.82;51.26
65127;BME280;51927;49.080;19.652;2023-10-13T00:11:24;94653.66;;;23.82;51.41
65127;BME280;51927;49.080;19.652;2023-10-13T00:11:31;94645.63;;;23.82;51.30
65127;BME280;51927;49.080;19.652;2023-10-13T00:11:37;94653.66;;;23.82;51.20
65127;BME280;51927;49.080;19.652;2023-10-13T00:11:45;94652.88;;;23.82;51.37
65127;BME280;51927;49.080;19.652;2023-10-13T00:11:51;94655.53;;;23.82;51.07
65127;BME280;51927;49.080;19.652;2023-10-13T00:11:58;94649.41;;;23.81;50.92
65127;BME280;51927;49.080;19.652;2023-10-13T00:12:06;94654.75;;;23.81;51.34
65127;BME280;51927;49.080;19.652;2023-10-13T00:12:18;94649.41;;;23.81;51.34
65127;BME280;51927;49.080;19.652;2023-10-13T00:12:28;94649.41;;;23.81;51.07
65127;BME280;51927;49.080;19.652;2023-10-13T00:12:36;94654.75;;;23.81;51.09
65127;BME280;51927;49.080;19.652;2023-10-13T00:12:43;94648.31;;;23.82;51.00
65127;BME280;51927;49.080;19.652;2023-10-13T00:12:54;94650.97;;;23.82;51.45
65127;BME280;51927;49.080;19.652;2023-10-13T00:13:10;94648.31;;;23.82;51.41
65127;BME280;51927;49.080;19.652;2023-10-13T00:13:19;94650.97;;;23.82;51.27
65127;BME280;51927;49.080;19.652;2023-10-13T00:13:28;94650.97;;;23.82;51.22
65127;BME280;51927;49.080;19.652;2023-10-13T00:13:34;94648.31;;;23.82;51.09
65127;BME280;51927;49.080;19.652;2023-10-13T00:13:55;94650.19;;;23.82;51.37
65127;BME280;51927;49.080;19.652;2023-10-13T00:14:00;94650.97;;;23.82;51.13
65127;BME280;51927;49.080;19.652;2023-10-13T00:14:08;94652.09;;;23.81;51.15
65127;BME280;51927;49.080;19.652;2023-10-13T00:14:14;94646.75;;;23.81;51.12
65127;BME280;51927;49.080;19.652;2023-10-13T00:14:21;94654.75;;;23.81;51.38
65127;BME280;51927;49.080;19.652;2023-10-13T00:14:27;94646.75;;;23.81;51.23
65127;BME280;51927;49.080;19.652;2023-10-13T00:14:38;94649.41;;;23.81;51.15
65127;BME280;51927;49.080;19.652;2023-10-13T00:14:44;94649.41;;;23.81;51.12
65127;BME280;51927;49.080;19.652;2023-10-13T00:14:50;94650.19;;;23.82;51.03
65127;BME280;51927;49.080;19.652;2023-10-13T00:14:56;94649.41;;;23.81;51.20
65127;BME280;51927;49.080;19.652;2023-10-13T00:15:01;94657.44;;;23.81;51.20
65127;BME280;51927;49.080;19.652;2023-10-13T00:15:09;94653.19;;;23.80;51.26
65127;BME280;51927;49.080;19.652;2023-10-13T00:15:18;94648.63;;;23.80;51.15
65127;BME280;51927;49.080;19.652;2023-10-13T00:15:32;94647.84;;;23.80;51.34
65127;BME280;51927;49.080;19.652;2023-10-13T00:15:44;94655.53;;;23.82;51.05
65127;BME280;51927;49.080;19.652;2023-10-13T00:16:01;94652.88;;;23.82;51.11
65127;BME280;51927;49.080;19.652;2023-10-13T00:16:08;94643.56;;;23.79;51.00
65127;BME280;51927;49.080;19.652;2023-10-13T00:16:22;94653.19;;;23.80;51.17
65127;BME280;51927;49.080;19.652;2023-10-13T00:16:27;94654.75;;;23.81;51.47
65127;BME280;51927;49.080;19.652;2023-10-13T00:16:33;94654.75;;;23.81;51.02
65127;BME280;51927;49.080;19.652;2023-10-13T00:16:39;94648.63;;;23.80;51.08
65127;BME280;51927;49.080;19.652;2023-10-13T00:16:45;94649.72;;;23.79;51.12
65127;BME280;51927;49.080;19.652;2023-10-13T00:17:06;94648.63;;;23.80;51.01
65127;BME280;51927;49.080;19.652;2023-10-13T00:17:20;94648.63;;;23.80;51.21
65127;BME280;51927;49.080;19.652;2023-10-13T00:17:29;94648.63;;;23.80;51.21
65127;BME280;51927;49.080;19.652;2023-10-13T00:17:37;94644.06;;;23.81;51.38
65127;BME280;51927;49.080;19.652;2023-10-13T00:17:43;94641.41;;;23.81;50.99
65127;BME280;51927;49.080;19.652;2023-10-13T00:17:48;94648.63;;;23.80;51.48
65127;BME280;51927;49.080;19.652;2023-10-13T00:17:54;94649.41;;;23.81;51.34
65127;BME280;51927;49.080;19.652;2023-10-13T00:18:00;94642.47;;;23.80;51.38
65127;BME280;51927;49.080;19.652;2023-10-13T00:18:06;94645.94;;;23.80;51.43
65127;BME280;51927;49.080;19.652;2023-10-13T00:18:17;94648.63;;;23.80;51.11
65127;BME280;51927;49.080;19.652;2023-10-13T00:18:28;94643.25;;;23.80;51.11
65127;BME280;51927;49.080;19.652;2023-10-13T00:18:38;94642.47;;;23.80;50.93
65127;BME280;51927;49.080;19.652;2023-10-13T00:18:49;94647.84;;;23.80;51.37
65127;BME280;51927;49.080;19.652;2023-10-13T00:18:55;94643.56;;;23.79;51.18
65127;BME280;51927;49.080;19.652;2023-10-13T00:19:02;94646.75;;;23.81;51.16
65127;BME280;51927;49.080;19.652;2023-10-13T00:19:10;94646.75;;;23.81;51.49
65127;BME280;51927;49.080;19.652;2023-10-13T00:19:18;94645.16;;;23.80;51.16
65127;BME280;51927;49.080;19.652;2023-10-13T00:19:23;94645.16;;;23.80;51.52
65127;BME280;51927;49.080;19.652;2023-10-13T00:19:30;94637.91;;;23.80;51.30
65127;BME280;51927;49.080;19.652;2023-10-13T00:19:42;94645.94;;;23.80;51.08
65127;BME280;51927;49.080;19.652;2023-10-13T00:19:51;94646.75;;;23.81;51.36
65127;BME280;51927;49.080;19.652;2023-10-13T00:20:00;94648.63;;;23.80;51.36
65127;BME280;51927;49.080;19.652;2023-10-13T00:20:05;94643.25;;;23.80;51.40
65127;BME280;51927;49.080;19.652;2023-10-13T00:20:16;94651.28;;;23.80;51.16
65127;BME280;51927;49.080;19.652;2023-10-13T00:20:41;94647.84;;;23.80;51.52
65127;BME280;51927;49.080;19.652;2023-10-13T00:20:53;94644.06;;;23.81;51.21
65127;BME280;51927;49.080;19.652;2023-10-13T00:21:02;94648.63;;;23.80;51.53
65127;BME280;51927;49.080;19.652;2023-10-13T00:21:17;94648.63;;;23.80;51.47
65127;BME280;51927;49.080;19.652;2023-10-13T00:21:36;94647.84;;;23.80;51.16
65127;BME280;51927;49.080;19.652;2023-10-13T00:21:41;94649.41;;;23.81;51.10
65127;BME280;51927;49.080;19.652;2023-10-13T00:21:47;94649.41;;;23.81;51.16
65127;BME280;51927;49.080;19.652;2023-10-13T00:21:52;94639.81;;;23.80;51.37
65127;BME280;51927;49.080;19.652;2023-10-13T00:22:00;94656.63;;;23.80;51.02
65127;BME280;51927;49.080;19.652;2023-10-13T00:22:14;94652.09;;;23.81;51.23
65127;BME280;51927;49.080;19.652;2023-10-13T00:22:21;94645.16;;;23.80;51.52
65127;BME280;51927;49.080;19.652;2023-10-13T00:22:27;94655.84;;;23.80;51.51
65127;BME280;51927;49.080;19.652;2023-10-13T00:22:36;94648.63;;;23.80;51.16
65127;BME280;51927;49.080;19.652;2023-10-13T00:22:44;94651.28;;;23.80;51.43
65127;BME280;51927;49.080;19.652;2023-10-13T00:22:50;94653.19;;;23.80;51.18
65127;BME280;51927;49.080;19.652;2023-10-13T00:22:55;94653.97;;;23.80;51.46
65127;BME280;51927;49.080;19.652;2023-10-13T00:23:02;94649.41;;;23.81;51.07
65127;BME280;51927;49.080;19.652;2023-10-13T00:23:07;94649.41;;;23.81;51.31
65127;BME280;51927;49.080;19.652;2023-10-13T00:23:13;94650.19;;;23.82;51.49
65127;BME280;51927;49.080;19.652;2023-10-13T00:23:18;94648.63;;;23.80;51.50
65127;BME280;51927;49.080;19.652;2023-10-13T00:23:26;94654.75;;;23.81;51.23
65127;BME280;51927;49.080;19.652;2023-10-13T00:23:40;94656.63;;;23.80;51.22
65127;BME280;51927;49.080;19.652;2023-10-13T00:23:58;94653.19;;;23.80;51.29
65127;BME280;51927;49.080;19.652;2023-10-13T00:24:06;94658.53;;;23.80;51.13
65127;BME280;51927;49.080;19.652;2023-10-13T00:24:16;94654.28;;;23.79;51.56
65127;BME280;51927;49.080;19.652;2023-10-13T00:24:28;94652.41;;;23.79;51.02
65127;BME280;51927;49.080;19.652;2023-10-13T00:24:35;94655.84;;;23.80;51.43
65127;BME280;51927;49.080;19.652;2023-10-13T00:24:47;94657.75;;;23.79;51.51
65127;BME280;51927;49.080;19.652;2023-10-13T00:24:55;94658.53;;;23.80;51.56
65127;BME280;51927;49.080;19.652;2023-10-13T00:25:03;94655.84;;;23.80;51.34
65127;BME280;51927;49.080;19.652;2023-10-13T00:25:09;94653.97;;;23.80;51.42
65127;BME280;51927;49.080;19.652;2023-10-13T00:25:24;94653.19;;;23.80;51.51
65127;BME280;51927;49.080;19.652;2023-10-13T00:25:36;94653.50;;;23.78;51.48
65127;BME280;51927;49.080;19.652;2023-10-13T00:25:49;94658.53;;;23.80;51.41
65127;BME280;51927;49.080;19.652;2023-10-13T00:26:04;94655.84;;;23.80;51.17
65127;BME280;51927;49.080;19.652;2023-10-13T00:26:10;94658.53;;;23.80;50.99
65127;BME280;51927;49.080;19.652;2023-10-13T00:26:15;94660.44;;;23.79;51.15
65127;BME280;51927;49.080;19.652;2023-10-13T00:26:23;94653.19;;;23.80;51.26
65127;BME280;51927;49.080;19.652;2023-10-13T00:26:32;94655.84;;;23.80;51.56
65127;BME280;51927;49.080;19.652;2023-10-13T00:26:41;94658.53;;;23.80;51.13
65127;BME280;51927;49.080;19.652;2023-10-13T00:26:48;94653.19;;;23.80;51.49
65127;BME280;51927;49.080;19.652;2023-10-13T00:26:55;94658.53;;;23.80;51.57
65127;BME280;51927;49.080;19.652;2023-10-13T00:27:02;94657.75;;;23.79;51.03
65127;BME280;51927;49.080;19.652;2023-10-13T00:27:10;94658.53;;;23.80;51.11
65127;BME280;51927;49.080;19.652;2023-10-13T00:27:29;94659.31;;;23.80;51.49
65127;BME280;51927;49.080;19.652;2023-10-13T00:27:34;94658.53;;;23.80;51.31
65127;BME280;51927;49.080;19.652;2023-10-13T00:27:45;94659.31;;;23.80;51.44
65127;BME280;51927;49.080;19.652;2023-10-13T00:27:57;94661.19;;;23.80;51.11
65127;BME280;51927;49.080;19.652;2023-10-13T00:28:02;94656.63;;;23.80;51.41
65127;BME280;51927;49.080;19.652;2023-10-13T00:28:09;94663.88;;;23.80;51.11
65127;BME280;51927;49.080;19.652;2023-10-13T00:28:14;94658.53;;;23.80;51.13
65127;BME280;51927;49.080;19.652;2023-10-13T00:28:28;94659.31;;;23.80;51.23
65127;BME280;51927;49.080;19.652;2023-10-13T00:28:40;94659.31;;;23.80;51.12
65127;BME280;51927;49.080;19.652;2023-10-13T00:28:51;94661.19;;;23.80;51.15
65127;BME280;51927;49.080;19.652;2023-10-13T00:29:06;94668.13;;;23.81;51.34
65127;BME280;51927;49.080;19.652;2023-10-13T00:29:20;94667.31;;;23.80;51.21
65127;BME280;51927;49.080;19.652;2023-10-13T00:29:34;94667.31;;;23.80;51.50
65127;BME280;51927;49.080;19.652;2023-10-13T00:29:42;94661.19;;;23.80;51.28
65127;BME280;51927;49.080;19.652;2023-10-13T00:29:48;94661.19;;;23.80;51.41
65127;BME280;51927;49.080;19.652;2023-10-13T00:29:56;94663.09;;;23.79;50.99
65127;BME280;51927;49.080;19.652;2023-10-13T00:30:21;94666.56;;;23.80;51.54
65127;BME280;51927;49.080;19.652;2023-10-13T00:30:27;94663.88;;;23.80;50.97
65127;BME280;51927;49.080;19.652;2023-10-13T00:30:38;94665.47;;;23.81;50.97
65127;BME280;51927;49.080;19.652;2023-10-13T00:30:43;94664.66;;;23.80;51.14
65127;BME280;51927;49.080;19.652;2023-10-13T00:30:55;94663.88;;;23.80;51.29
65127;BME280;51927;49.080;19.652;2023-10-13T00:31:05;94664.66;;;23.80;51.55
65127;BME280;51927;49.080;19.652;2023-10-13T00:31:15;94663.88;;;23.80;51.54
65127;BME280;51927;49.080;19.652;2023-10-13T00:31:22;94661.97;;;23.80;51.44
65127;BME280;51927;49.080;19.652;2023-10-13T00:31:27;94668.13;;;23.81;50.98
65127;BME280;51927;49.080;19.652;2023-10-13T00:31:41;94669.22;;;23.80;51.00
65127;BME280;51927;49.080;19.652;2023-10-13T00:31:47;94661.19;;;23.80;51.25
65127;BME280;51927;49.080;19.652;2023-10-13T00:31:53;94662.78;;;23.81;51.01
65127;BME280;51927;49.080;19.652;2023-10-13T00:31:58;94666.56;;;23.80;51.25
65127;BME280;51927;49.080;19.652;2023-10-13T00:32:03;94666.56;;;23.80;51.05
65127;BME280;51927;49.080;19.652;2023-10-13T00:32:09;94663.88;;;23.80;51.05
65127;BME280;51927;49.080;19.652;2023-10-13T00:32:17;94663.88;;;23.80;51.55
65127;BME280;51927;49.080;19.652;2023-10-13T00:32:32;94671.91;;;23.80;51.22
65127;BME280;51927;49.080;19.652;2023-10-13T00:32:37;94669.22;;;23.80;51.48
65127;BME280;51927;49.080;19.652;2023-10-13T00:32:45;94661.19;;;23.80;51.29
65127;BME280;51927;49.080;19.652;2023-10-13T00:32:52;94669.22;;;23.80;51.25
65127;BME280;51927;49.080;19.652;2023-10-13T00:33:00;94664.97;;;23.79;51.50
65127;BME280;51927;49.080;19.652;2023-10-13T00:33:05;94671.13;;;23.79;51.54
65127;BME280;51927;49.080;19.652;2023-10-13T00:33:12;94663.88;;;23.80;51.19
65127;BME280;51927;49.080;19.652;2023-10-13T00:33:17;94662.28;;;23.79;51.55
65127;BME280;51927;49.080;19.652;2023-10-13T00:33:27;94661.97;;;23.80;51.28
65127;BME280;51927;49.080;19.652;2023-10-13T00:33:32;94665.78;;;23.79;51.41
65127;BME280;51927;49.080;19.652;2023-10-13T00:33:38;94663.88;;;23.80;51.16
65127;BME280;51927;49.080;19.652;2023-10-13T00:33:43;94663.09;;;23.79;51.55
65127;BME280;51927;49.080;19.652;2023-10-13T00:33:49;94664.97;;;23.79;51.38
65127;BME280;51927;49.080;19.652;2023-10-13T00:33:56;94667.63;;;23.79;51.52
65127;BME280;51927;49.080;19.652;2023-10-13T00:34:06;94669.22;;;23.80;51.09
65127;BME280;51927;49.080;19.652;2023-10-13T00:34:21;94669.22;;;23.80;50.98
65127;BME280;51927;49.080;19.652;2023-10-13T00:34:32;94658.53;;;23.80;51.16
65127;BME280;51927;49.080;19.652;2023-10-13T00:34:40;94663.09;;;23.79;51.39
65127;BME280;51927;49.080;19.652;2023-10-13T00:34:45;94666.56;;;23.80;51.19
65127;BME280;51927;49.080;19.652;2023-10-13T00:34:50;94667.31;;;23.80;51.15
65127;BME280;51927;49.080;19.652;2023-10-13T00:35:01;94666.56;;;23.80;51.16
65127;BME280;51927;49.080;19.652;2023-10-13T00:35:10;94663.88;;;23.80;51.64
65127;BME280;51927;49.080;19.652;2023-10-13T00:35:29;94666.56;;;23.80;51.18
65127;BME280;51927;49.080;19.652;2023-10-13T00:35:42;94672.69;;;23.80;51.01
65127;BME280;51927;49.080;19.652;2023-10-13T00:35:49;94670.00;;;23.80;51.40
65127;BME280;51927;49.080;19.652;2023-10-13T00:35:56;94663.88;;;23.80;51.19
65127;BME280;51927;49.080;19.652;2023-10-13T00:36:03;94671.91;;;23.80;51.18
65127;BME280;51927;49.080;19.652;2023-10-13T00:36:10;94675.66;;;23.79;51.39
65127;BME280;51927;49.080;19.652;2023-10-13T00:36:22;94670.81;;;23.81;51.12
65127;BME280;51927;49.080;19.652;2023-10-13T00:36:28;94658.53;;;23.80;51.19
65127;BME280;51927;49.080;19.652;2023-10-13T00:36:33;94668.44;;;23.79;51.57
65127;BME280;51927;49.080;19.652;2023-10-13T00:36:40;94669.22;;;23.80;51.49
65127;BME280;51927;49.080;19.652;2023-10-13T00:36:53;94663.09;;;23.79;51.51
65127;BME280;51927;49.080;19.652;2023-10-13T00:37:16;94668.44;;;23.79;50.97
65127;BME280;51927;49.080;19.652;2023-10-13T00:37:32;94671.13;;;23.79;51.49
65127;BME280;51927;49.080;19.652;2023-10-13T00:37:46;94667.63;;;23.79;51.26
65127;BME280;51927;49.080;19.652;2023-10-13T00:37:52;94665.78;;;23.79;51.24
65127;BME280;51927;49.080;19.652;2023-10-13T00:38:04;94668.44;;;23.79;51.50
65127;BME280;51927;49.080;19.652;2023-10-13T00:38:21;94666.56;;;23.80;51.22
65127;BME280;51927;49.080;19.652;2023-10-13T00:38:28;94669.22;;;23.80;51.13
65127;BME280;51927;49.080;19.652;2023-10-13T00:38:33;94659.63;;;23.79;51.17
65127;BME280;51927;49.080;19.652;2023-10-13T00:38:40;94666.56;;;23.80;50.98
65127;BME280;51927;49.080;19.652;2023-10-13T00:38:45;94668.44;;;23.79;51.42
65127;BME280;51927;49.080;19.652;2023-10-13T00:38:53;94669.22;;;23.80;51.38
65127;BME280;51927;49.080;19.652;2023-10-13T00:39:01;94668.44;;;23.79;51.02
65127;BME280;51927;49.080;19.652;2023-10-13T00:39:06;94669.22;;;23.80;51.17
65127;BME280;51927;49.080;19.652;2023-10-13T00:39:12;94662.28;;;23.79;51.19
65127;BME280;51927;49.080;19.652;2023-10-13T00:39:20;94666.56;;;23.80;51.17
65127;BME280;51927;49.080;19.652;2023-10-13T00:39:27;94669.22;;;23.80;51.43
65127;BME280;51927;49.080;19.652;2023-10-13T00:39:33;94670.00;;;23.80;51.41
65127;BME280;51927;49.080;19.652;2023-10-13T00:39:41;94665.47;;;23.81;51.10
65127;BME280;51927;49.080;19.652;2023-10-13T00:39:49;94673.47;;;23.81;50.96
65127;BME280;51927;49.080;19.652;2023-10-13T00:40:01;94668.44;;;23.79;51.06
65127;BME280;51927;49.080;19.652;2023-10-13T00:40:13;94663.88;;;23.80;51.09
65127;BME280;51927;49.080;19.652;2023-10-13T00:40:41;94666.56;;;23.80;51.56
65127;BME280;51927;49.080;19.652;2023-10-13T00:40:48;94662.28;;;23.79;51.06
65127;BME280;51927;49.080;19.652;2023-10-13T00:40:59;94658.06;;;23.78;51.39
65127;BME280;51927;49.080;19.652;2023-10-13T00:41:21;94671.13;;;23.79;51.50
65127;BME280;51927;49.080;19.652;2023-10-13T00:41:46;94663.09;;;23.79;51.42
65127;BME280;51927;49.080;19.652;2023-10-13T00:42:01;94661.50;;;23.78;51.43
65127;BME280;51927;49.080;19.652;2023-10-13T00:42:14;94664.19;;;23.78;51.51
65127;BME280;51927;49.080;19.652;2023-10-13T00:42:24;94664.19;;;23.78;51.18
65127;BME280;51927;49.080;19.652;2023-10-13T00:42:51;94662.28;;;23.79;51.46
65127;BME280;51927;49.080;19.652;2023-10-13T00:42:57;94664.19;;;23.78;51.20
65127;BME280;51927;49.080;19.652;2023-10-13T00:43:22;94662.28;;;23.79;51.19
65127;BME280;51927;49.080;19.652;2023-10-13T00:43:27;94674.56;;;23.80;51.19
65127;BME280;51927;49.080;19.652;2023-10-13T00:43:33;94669.22;;;23.80;51.11
65127;BME280;51927;49.080;19.652;2023-10-13T00:43:44;94668.44;;;23.79;51.42
65127;BME280;51927;49.080;19.652;2023-10-13T00:43:49;94670.31;;;23.79;50.95
65127;BME280;51927;49.080;19.652;2023-10-13T00:44:09;94667.63;;;23.79;51.46
65127;BME280;51927;49.080;19.652;2023-10-13T00:44:15;94675.66;;;23.79;51.48